createdAt,value
2019-05-09T00:01:43.868Z,84.43
2019-05-09T00:04:14.036Z,83.55
2019-05-09T00:06:43.485Z,84.07
2019-05-09T00:09:13.867Z,84.69
2019-05-09T00:11:43.970Z,83.24
2019-05-09T00:14:13.702Z,83.97
2019-05-09T00:16:43.920Z,83.10
2019-05-09T00:19:13.607Z,82.64
2019-05-09T00:21:50.332Z,82.86
2019-05-09T00:24:20.146Z,82.70
2019-05-09T00:26:49.139Z,83.46
2019-05-09T00:29:28.475Z,83.42
2019-05-09T00:32:14.967Z,82.62
2019-05-09T00:34:53.145Z,82.79
2019-05-09T00:37:23.855Z,82.18
2019-05-09T00:39:53.308Z,82.04
2019-05-09T00:42:24.033Z,83.15
2019-05-09T00:44:57.276Z,83.08
2019-05-09T00:47:27.684Z,82.97
2019-05-09T00:49:56.573Z,83.62
2019-05-09T00:52:25.462Z,82.40
2019-05-09T00:54:54.359Z,83.17
2019-05-09T00:57:27.555Z,83.55
2019-05-09T00:59:56.435Z,83.49
2019-05-09T01:02:25.329Z,83.82
2019-05-09T01:04:54.217Z,84.79
2019-05-09T01:07:23.295Z,84.06
2019-05-09T01:09:54.215Z,82.52
2019-05-09T01:12:23.540Z,83.02
2019-05-09T01:14:53.900Z,83.42
2019-05-09T01:17:24.060Z,83.07
2019-05-09T01:19:53.863Z,83.34
2019-05-09T01:22:23.616Z,83.45
2019-05-09T01:24:53.413Z,84.41
2019-05-09T01:27:23.328Z,83.60
2019-05-09T01:29:53.551Z,83.04
2019-05-09T01:32:24.137Z,83.91
2019-05-09T01:34:53.131Z,85.04
2019-05-09T01:37:23.714Z,84.42
2019-05-09T01:39:53.431Z,83.52
2019-05-09T01:42:23.336Z,81.89
2019-05-09T01:44:53.326Z,83.28
2019-05-09T01:47:23.529Z,83.79
2019-05-09T01:49:53.871Z,83.09
2019-05-09T01:52:23.267Z,83.22
2019-05-09T01:54:54.145Z,83.32
2019-05-09T01:57:23.303Z,82.82
2019-05-09T01:59:53.209Z,83.55
2019-05-09T02:02:23.538Z,82.58
2019-05-09T02:04:53.304Z,82.25
2019-05-09T02:07:23.763Z,80.93
2019-05-09T02:09:54.015Z,80.75
2019-05-09T02:12:24.626Z,79.70
2019-05-09T02:15:04.438Z,78.69
2019-05-09T02:17:38.039Z,78.56
2019-05-09T02:20:07.238Z,77.68
2019-05-09T02:22:36.537Z,78.04
2019-05-09T02:25:10.054Z,78.34
2019-05-09T02:27:38.928Z,78.30
2019-05-09T02:30:09.668Z,78.30
2019-05-09T02:32:38.557Z,78.14
2019-05-09T02:35:08.756Z,77.87
2019-05-09T02:37:38.919Z,76.63
2019-05-09T02:40:10.019Z,77.30
2019-05-09T02:42:40.129Z,75.82
2019-05-09T02:45:10.797Z,75.45
2019-05-09T02:47:39.687Z,76.32
2019-05-09T02:50:10.076Z,75.56
2019-05-09T02:52:39.861Z,76.75
2019-05-09T02:55:10.633Z,76.96
2019-05-09T02:57:39.786Z,76.79
2019-05-09T03:00:11.421Z,76.12
2019-05-09T03:02:42.165Z,76.93
2019-05-09T03:05:11.380Z,76.67
2019-05-09T03:07:52.426Z,76.18
2019-05-09T03:10:22.003Z,75.54
2019-05-09T03:12:51.210Z,75.42
2019-05-09T03:15:20.923Z,75.53
2019-05-09T03:17:50.079Z,75.81
2019-05-09T03:20:20.969Z,76.39
2019-05-09T03:22:49.880Z,76.27
2019-05-09T03:25:19.274Z,76.70
2019-05-09T03:27:49.899Z,76.00
2019-05-09T03:30:21.124Z,75.31
2019-05-09T03:32:50.651Z,74.69
2019-05-09T03:35:19.542Z,75.15
2019-05-09T03:37:49.968Z,74.64
2019-05-09T03:40:18.964Z,74.52
2019-05-09T03:42:48.668Z,74.26
2019-05-09T03:45:19.375Z,73.64
2019-05-09T03:47:52.807Z,74.46
2019-05-09T03:50:21.698Z,73.93
2019-05-09T03:52:50.590Z,73.11
2019-05-09T03:55:21.016Z,73.31
2019-05-09T03:57:51.444Z,74.23
2019-05-09T04:00:20.642Z,73.71
2019-05-09T04:02:49.539Z,74.66
2019-05-09T04:05:19.961Z,75.08
2019-05-09T04:07:48.850Z,76.33
2019-05-09T04:10:18.117Z,74.72
2019-05-09T04:12:55.899Z,75.40
2019-05-09T04:15:19.102Z,75.45
2019-05-09T04:17:48.207Z,74.87
2019-05-09T04:20:17.658Z,75.56
2019-05-09T04:22:48.838Z,75.66
2019-05-09T04:25:18.714Z,75.91
2019-05-09T04:27:49.196Z,75.62
2019-05-09T04:30:18.496Z,75.85
2019-05-09T04:32:48.114Z,76.57
2019-05-09T04:35:18.206Z,76.25
2019-05-09T04:37:48.192Z,75.50
2019-05-09T04:40:17.920Z,75.62
2019-05-09T04:42:47.449Z,75.04
2019-05-09T04:45:18.088Z,75.89
2019-05-09T04:47:47.222Z,76.46
2019-05-09T04:50:23.604Z,77.94
2019-05-09T04:52:47.595Z,78.05
2019-05-09T04:55:18.256Z,78.58
2019-05-09T04:57:48.609Z,79.36
2019-05-09T05:00:19.295Z,79.64
2019-05-09T05:02:49.746Z,78.64
2019-05-09T05:05:18.636Z,78.78
2019-05-09T05:07:48.149Z,78.06
2019-05-09T05:10:18.373Z,77.86
2019-05-09T05:12:48.475Z,77.80
2019-05-09T05:15:20.574Z,77.82
2019-05-09T05:17:49.543Z,78.11
2019-05-09T05:20:19.970Z,77.71
2019-05-09T05:22:59.614Z,77.37
2019-05-09T05:25:28.607Z,77.22
2019-05-09T05:27:58.932Z,77.03
2019-05-09T05:30:28.494Z,77.22
2019-05-09T05:32:59.072Z,75.93
2019-05-09T05:35:29.501Z,75.66
2019-05-09T05:37:58.387Z,75.07
2019-05-09T05:40:33.077Z,75.35
2019-05-09T05:42:58.586Z,76.13
2019-05-09T05:45:29.259Z,75.45
2019-05-09T05:47:59.686Z,76.45
2019-05-09T05:50:28.578Z,75.99
2019-05-09T05:52:57.889Z,77.82
2019-05-09T05:55:27.521Z,77.72
2019-05-09T05:57:57.930Z,77.83
2019-05-09T06:00:28.517Z,77.62
2019-05-09T06:02:58.566Z,79.03
2019-05-09T06:05:28.007Z,78.66
2019-05-09T06:07:57.695Z,79.30
2019-05-09T06:10:29.069Z,79.75
2019-05-09T06:12:57.647Z,79.57
2019-05-09T06:15:28.855Z,79.34
2019-05-09T06:17:58.082Z,79.80
2019-05-09T06:20:28.107Z,78.93
2019-05-09T06:22:58.153Z,77.94
2019-05-09T06:25:30.476Z,77.29
2019-05-09T06:27:58.547Z,77.31
2019-05-09T06:30:29.405Z,77.09
2019-05-09T06:32:59.291Z,76.63
2019-05-09T06:35:28.788Z,75.81
2019-05-09T06:37:58.841Z,74.86
2019-05-09T06:40:28.723Z,74.65
2019-05-09T06:42:59.338Z,74.49
2019-05-09T06:45:45.252Z,74.99
2019-05-09T06:48:14.959Z,74.64
2019-05-09T06:50:43.953Z,74.55
2019-05-09T06:53:12.842Z,74.60
2019-05-09T06:55:41.733Z,74.52
2019-05-09T06:58:28.547Z,74.34
2019-05-09T07:01:15.214Z,75.02
2019-05-09T07:04:01.860Z,75.25
2019-05-09T07:06:48.670Z,75.00
2019-05-09T07:09:22.987Z,74.85
2019-05-09T07:11:51.879Z,74.87
2019-05-09T07:14:31.831Z,73.98
2019-05-09T07:16:58.886Z,74.46
2019-05-09T07:19:28.095Z,73.93
2019-05-09T07:22:18.378Z,75.40
2019-05-09T07:25:05.902Z,75.96
2019-05-09T07:27:30.592Z,76.65
2019-05-09T07:30:00.984Z,75.70
2019-05-09T07:32:34.092Z,75.70
2019-05-09T07:35:04.534Z,75.52
2019-05-09T07:37:33.425Z,75.52
2019-05-09T07:40:02.327Z,74.14
2019-05-09T07:42:31.207Z,74.29
2019-05-09T07:45:00.100Z,74.30
2019-05-09T07:47:28.990Z,74.82
2019-05-09T07:49:59.315Z,74.91
2019-05-09T07:52:28.494Z,74.02
2019-05-09T07:54:58.130Z,75.65
2019-05-09T07:57:28.543Z,74.59
2019-05-09T07:59:58.481Z,74.74
2019-05-09T08:02:28.198Z,76.17
2019-05-09T08:04:58.171Z,76.02
2019-05-09T08:07:29.078Z,76.56
2019-05-09T08:09:58.077Z,75.97
2019-05-09T08:12:28.416Z,74.70
2019-05-09T08:15:08.586Z,75.24
2019-05-09T08:17:28.711Z,73.70
2019-05-09T08:19:58.274Z,74.19
2019-05-09T08:22:32.065Z,73.49
2019-05-09T08:24:58.041Z,74.47
2019-05-09T08:27:30.108Z,73.09
2019-05-09T08:29:58.317Z,72.97
2019-05-09T08:32:28.633Z,72.77
2019-05-09T08:34:57.839Z,72.91
2019-05-09T08:37:28.347Z,74.39
2019-05-09T08:39:57.868Z,74.16
2019-05-09T08:42:26.718Z,75.99
2019-05-09T08:44:57.811Z,74.03
2019-05-09T08:47:27.810Z,74.32
2019-05-09T08:49:58.789Z,75.97
2019-05-09T08:52:28.754Z,76.38
2019-05-09T08:54:59.158Z,78.00
2019-05-09T08:57:28.983Z,78.42
2019-05-09T08:59:58.931Z,78.50
2019-05-09T09:02:28.462Z,78.08
2019-05-09T09:04:58.400Z,77.31
2019-05-09T09:07:29.682Z,77.07
2019-05-09T09:09:58.162Z,76.57
2019-05-09T09:12:34.031Z,77.19
2019-05-09T09:14:58.572Z,76.39
2019-05-09T09:17:28.036Z,76.74
2019-05-09T09:19:58.314Z,78.00
2019-05-09T09:22:28.344Z,77.70
2019-05-09T09:24:58.641Z,77.10
2019-05-09T09:27:28.570Z,77.23
2019-05-09T09:30:15.541Z,77.53
2019-05-09T09:32:29.524Z,79.42
2019-05-09T09:34:58.833Z,79.41
2019-05-09T09:37:43.812Z,80.13
2019-05-09T09:39:58.554Z,80.83
2019-05-09T09:42:29.082Z,79.95
2019-05-09T09:44:58.688Z,78.58
2019-05-09T09:47:28.633Z,79.71
2019-05-09T09:49:59.493Z,79.29
2019-05-09T09:52:29.333Z,78.25
2019-05-09T09:54:59.066Z,77.78
2019-05-09T09:57:28.839Z,78.34
2019-05-09T10:00:02.155Z,77.10
2019-05-09T10:02:32.702Z,78.39
2019-05-09T10:05:01.642Z,78.05
2019-05-09T10:07:30.486Z,78.38
2019-05-09T10:09:59.381Z,78.34
2019-05-09T10:12:29.123Z,77.46
2019-05-09T10:15:02.893Z,78.37
2019-05-09T10:17:39.464Z,78.25
2019-05-09T10:20:25.661Z,78.68
2019-05-09T10:23:00.771Z,79.21
2019-05-09T10:25:27.483Z,79.95
2019-05-09T10:27:55.699Z,80.38
2019-05-09T10:30:34.231Z,79.95
2019-05-09T10:33:03.159Z,80.09
2019-05-09T10:35:32.015Z,80.83
2019-05-09T10:38:01.008Z,83.30
2019-05-09T10:40:29.898Z,81.78
2019-05-09T10:43:00.334Z,81.07
2019-05-09T10:45:43.765Z,81.19
2019-05-09T10:48:12.754Z,81.48
2019-05-09T10:50:45.780Z,81.02
2019-05-09T10:53:13.811Z,79.79
2019-05-09T10:55:42.701Z,80.14
2019-05-09T10:58:13.947Z,78.76
2019-05-09T11:00:42.838Z,78.35
2019-05-09T11:03:11.835Z,77.76
2019-05-09T11:05:40.927Z,77.88
2019-05-09T11:08:10.330Z,78.44
2019-05-09T11:10:39.970Z,77.94
2019-05-09T11:13:09.342Z,79.07
2019-05-09T11:15:38.290Z,78.40
2019-05-09T11:18:08.303Z,79.71
2019-05-09T11:20:37.246Z,78.69
2019-05-09T11:23:08.058Z,77.42
2019-05-09T11:25:38.043Z,78.01
2019-05-09T11:28:12.675Z,78.56
2019-05-09T11:30:38.727Z,77.69
2019-05-09T11:33:08.457Z,77.82
2019-05-09T11:35:38.167Z,77.62
2019-05-09T11:38:08.373Z,77.47
2019-05-09T11:40:37.942Z,77.81
2019-05-09T11:43:07.535Z,77.71
2019-05-09T11:45:38.706Z,76.96
2019-05-09T11:48:08.180Z,78.57
2019-05-09T11:50:38.869Z,78.42
2019-05-09T11:53:08.821Z,78.21
2019-05-09T11:55:43.070Z,78.67
2019-05-09T11:58:08.725Z,78.60
2019-05-09T12:00:38.209Z,76.38
2019-05-09T12:03:09.068Z,74.94
2019-05-09T12:05:39.813Z,74.98
2019-05-09T12:08:09.031Z,74.90
2019-05-09T12:10:38.347Z,75.44
2019-05-09T12:13:08.558Z,75.10
2019-05-09T12:15:39.055Z,75.11
2019-05-09T12:18:11.714Z,75.41
2019-05-09T12:20:39.716Z,74.99
2019-05-09T12:23:09.027Z,75.42
2019-05-09T12:25:38.622Z,75.48
2019-05-09T12:28:08.047Z,75.96
2019-05-09T12:30:37.948Z,76.99
2019-05-09T12:33:08.557Z,78.28
2019-05-09T12:35:38.602Z,78.81
2019-05-09T12:38:08.382Z,77.98
2019-05-09T12:40:38.862Z,78.71
2019-05-09T12:43:10.182Z,78.64
2019-05-09T12:45:39.174Z,79.60
2019-05-09T12:48:14.930Z,78.38
2019-05-09T12:50:39.519Z,76.74
2019-05-09T12:53:09.121Z,76.34
2019-05-09T12:55:38.585Z,75.05
2019-05-09T12:58:09.794Z,75.99
2019-05-09T13:00:38.774Z,76.51
2019-05-09T13:03:08.729Z,76.51
2019-05-09T13:05:38.861Z,76.44
2019-05-09T13:08:10.432Z,76.21
2019-05-09T13:10:38.733Z,77.82
2019-05-09T13:13:08.814Z,77.23
2019-05-09T13:15:39.586Z,77.68
2019-05-09T13:18:21.373Z,78.46
2019-05-09T13:20:39.213Z,78.01
2019-05-09T13:23:09.033Z,77.61
2019-05-09T13:25:38.209Z,75.11
2019-05-09T13:28:08.201Z,74.92
2019-05-09T13:30:38.015Z,73.23
2019-05-09T13:33:10.602Z,71.95
2019-05-09T13:35:39.214Z,71.76
2019-05-09T13:38:12.186Z,71.49
2019-05-09T13:40:42.632Z,70.99
2019-05-09T13:43:13.467Z,70.90
2019-05-09T13:45:42.356Z,71.30
2019-05-09T13:48:27.079Z,72.33
2019-05-09T13:50:43.008Z,74.59
2019-05-09T13:53:12.410Z,77.80
2019-05-09T13:55:41.305Z,77.47
2019-05-09T13:58:11.215Z,79.94
2019-05-09T14:00:54.831Z,80.31
2019-05-09T14:03:11.567Z,81.83
2019-05-09T14:05:40.451Z,82.28
2019-05-09T14:08:11.794Z,81.84
2019-05-09T14:10:40.074Z,81.47
2019-05-09T14:13:13.544Z,81.50
2019-05-09T14:15:43.476Z,81.92
2019-05-09T14:18:11.356Z,81.75
2019-05-09T14:20:40.250Z,82.26
2019-05-09T14:23:11.695Z,81.13
2019-05-09T14:25:40.804Z,80.16
2019-05-09T14:28:09.996Z,80.70
2019-05-09T14:30:39.106Z,81.14
2019-05-09T14:33:08.497Z,81.57
2019-05-09T14:35:38.699Z,80.71
2019-05-09T14:38:09.010Z,81.41
2019-05-09T14:40:38.686Z,81.02
2019-05-09T14:43:09.776Z,80.67
2019-05-09T14:45:38.998Z,81.56
2019-05-09T14:48:08.294Z,81.77
2019-05-09T14:50:38.157Z,80.16
2019-05-09T14:53:08.620Z,81.12
2019-05-09T14:55:39.182Z,79.95
2019-05-09T14:58:08.898Z,80.70
2019-05-09T15:00:38.827Z,80.83
2019-05-09T15:03:08.311Z,80.40
2019-05-09T15:05:37.960Z,80.81
2019-05-09T15:08:07.927Z,80.05
2019-05-09T15:10:38.442Z,78.97
2019-05-09T15:13:08.179Z,77.61
2019-05-09T15:15:38.222Z,78.39
2019-05-09T15:18:08.226Z,79.17
2019-05-09T15:20:38.054Z,78.64
2019-05-09T15:23:08.582Z,77.71
2019-05-09T15:25:37.631Z,77.16
2019-05-09T15:28:08.284Z,77.41
2019-05-09T15:30:38.513Z,80.15
2019-05-09T15:33:08.412Z,81.03
2019-05-09T15:35:39.103Z,83.08
2019-05-09T15:38:08.767Z,84.35
2019-05-09T15:40:38.728Z,79.37
2019-05-09T15:43:08.556Z,78.54
2019-05-09T15:45:41.976Z,81.38
2019-05-09T15:48:11.273Z,82.82
2019-05-09T15:50:40.161Z,83.63
2019-05-09T15:53:10.082Z,84.10
2019-05-09T15:55:38.969Z,83.56
2019-05-09T15:58:08.887Z,83.99
2019-05-09T16:00:39.209Z,83.69
2019-05-09T16:03:08.615Z,83.21
2019-05-09T16:05:38.515Z,85.24
2019-05-09T16:08:09.140Z,83.72
2019-05-09T16:10:38.571Z,84.11
2019-05-09T16:13:08.585Z,84.14
2019-05-09T16:15:38.166Z,85.43
2019-05-09T16:18:08.649Z,83.85
2019-05-09T16:20:41.115Z,84.13
2019-05-09T16:23:09.163Z,84.02
2019-05-09T16:25:38.710Z,84.36
2019-05-09T16:28:08.665Z,85.20
2019-05-09T16:30:38.314Z,84.98
2019-05-09T16:33:08.195Z,85.87
2019-05-09T16:35:38.180Z,84.64
2019-05-09T16:38:10.692Z,82.71
2019-05-09T16:40:38.779Z,82.97
2019-05-09T16:43:09.185Z,82.08
2019-05-09T16:45:38.193Z,81.38
2019-05-09T16:48:11.402Z,81.37
2019-05-09T16:50:56.740Z,80.89
2019-05-09T16:53:11.421Z,80.82
2019-05-09T16:55:41.028Z,81.47
2019-05-09T16:58:10.842Z,83.76
2019-05-09T17:00:47.853Z,83.84
2019-05-09T17:03:17.858Z,84.20
2019-05-09T17:05:46.936Z,82.07
2019-05-09T17:08:17.829Z,80.48
2019-05-09T17:10:48.629Z,80.00
2019-05-09T17:13:18.464Z,80.03
2019-05-09T17:15:47.633Z,80.33
2019-05-09T17:18:18.968Z,80.84
2019-05-09T17:20:48.679Z,79.76
2019-05-09T17:23:19.058Z,79.09
2019-05-09T17:25:48.256Z,80.24
2019-05-09T17:28:17.888Z,79.96
2019-05-09T17:30:49.230Z,80.78
2019-05-09T17:33:18.460Z,82.35
2019-05-09T17:35:48.309Z,81.40
2019-05-09T17:38:18.072Z,82.32
2019-05-09T17:40:48.416Z,81.26
2019-05-09T17:43:18.227Z,82.82
2019-05-09T17:45:47.935Z,81.91
2019-05-09T17:48:18.335Z,78.24
2019-05-09T17:50:47.461Z,77.67
2019-05-09T17:53:18.177Z,75.93
2019-05-09T17:55:47.783Z,78.79
2019-05-09T17:58:27.243Z,79.53
2019-05-09T18:00:48.632Z,80.60
2019-05-09T18:03:19.288Z,80.98
2019-05-09T18:05:48.739Z,80.82
2019-05-09T18:08:18.737Z,81.59
2019-05-09T18:10:48.601Z,81.26
2019-05-09T18:13:23.556Z,82.10
2019-05-09T18:15:48.513Z,80.81
2019-05-09T18:18:18.463Z,80.94
2019-05-09T18:20:47.669Z,81.19
2019-05-09T18:23:17.670Z,81.08
2019-05-09T18:25:49.206Z,82.76
2019-05-09T18:28:18.845Z,81.30
2019-05-09T18:30:48.000Z,81.51
2019-05-09T18:33:21.645Z,82.07
2019-05-09T18:35:50.639Z,82.21
2019-05-09T18:38:28.445Z,82.78
2019-05-09T18:40:58.066Z,82.69
2019-05-09T18:43:27.574Z,82.87
2019-05-09T18:45:57.750Z,81.77
2019-05-09T18:48:28.305Z,82.31
2019-05-09T18:50:57.204Z,81.70
2019-05-09T18:53:26.189Z,82.17
2019-05-09T18:55:55.185Z,82.87
2019-05-09T18:58:24.072Z,83.12
2019-05-09T19:00:53.071Z,82.87
2019-05-09T19:03:22.070Z,85.96
2019-05-09T19:05:50.958Z,88.03
2019-05-09T19:08:19.946Z,87.33
2019-05-09T19:10:52.131Z,85.20
2019-05-09T19:13:19.468Z,84.66
2019-05-09T19:15:49.901Z,83.03
2019-05-09T19:18:20.325Z,80.92
2019-05-09T19:20:50.748Z,80.02
2019-05-09T19:23:19.853Z,83.19
2019-05-09T19:25:48.738Z,81.58
2019-05-09T19:28:17.626Z,84.12
2019-05-09T19:30:46.517Z,84.92
2019-05-09T19:33:17.051Z,84.76
2019-05-09T19:35:46.056Z,86.59
2019-05-09T19:38:14.934Z,87.30
2019-05-09T19:40:43.734Z,87.08
2019-05-09T19:43:12.617Z,87.36
2019-05-09T19:45:41.510Z,88.36
2019-05-09T19:48:11.116Z,88.79
2019-05-09T19:50:40.008Z,89.07
2019-05-09T19:53:10.274Z,88.73
2019-05-09T19:55:39.326Z,88.57
2019-05-09T19:58:08.931Z,88.62
2019-05-09T20:00:37.887Z,88.93
2019-05-09T20:03:07.745Z,87.74
2019-05-09T20:05:36.631Z,87.92
2019-05-09T20:08:05.533Z,87.98
2019-05-09T20:10:48.337Z,86.84
2019-05-09T20:13:18.766Z,87.00
2019-05-09T20:15:47.659Z,87.41
2019-05-09T20:18:18.083Z,86.72
2019-05-09T20:20:46.977Z,87.99
2019-05-09T20:23:15.971Z,88.01
2019-05-09T20:25:44.970Z,87.78
2019-05-09T20:28:13.855Z,89.21
2019-05-09T20:30:42.799Z,89.63
2019-05-09T20:33:11.707Z,89.60
2019-05-09T20:35:40.656Z,89.07
2019-05-09T20:38:10.548Z,88.33
2019-05-09T20:40:41.193Z,88.82
2019-05-09T20:43:10.438Z,90.20
2019-05-09T20:45:39.574Z,89.52
2019-05-09T20:48:09.140Z,89.58
2019-05-09T20:50:38.178Z,90.63
2019-05-09T20:53:09.957Z,90.95
2019-05-09T20:55:38.415Z,90.61
2019-05-09T20:58:07.418Z,90.60
2019-05-09T21:00:36.419Z,90.71
2019-05-09T21:03:08.047Z,90.51
2019-05-09T21:05:36.334Z,90.97
2019-05-09T21:08:06.924Z,90.82
2019-05-09T21:10:36.044Z,89.85
2019-05-09T21:13:05.060Z,89.43
2019-05-09T21:15:34.130Z,89.77
2019-05-09T21:18:03.177Z,89.20
2019-05-09T21:20:32.242Z,87.81
2019-05-09T21:23:01.235Z,87.71
2019-05-09T21:25:33.209Z,87.33
2019-05-09T21:28:01.105Z,86.97
2019-05-09T21:30:30.161Z,87.07
2019-05-09T21:32:59.156Z,86.07
2019-05-09T21:35:28.043Z,86.10
2019-05-09T21:37:56.935Z,86.02
2019-05-09T21:40:25.828Z,86.82
2019-05-09T21:42:54.717Z,86.48
2019-05-09T21:45:23.622Z,87.28
2019-05-09T21:47:52.505Z,86.59
2019-05-09T21:50:21.399Z,87.50
2019-05-09T21:52:50.285Z,87.67
2019-05-09T21:55:19.178Z,86.80
2019-05-09T21:57:48.578Z,87.38
2019-05-09T22:00:24.842Z,86.33
2019-05-09T22:02:53.836Z,86.64
2019-05-09T22:05:22.837Z,86.80
2019-05-09T22:07:51.718Z,87.01
2019-05-09T22:10:20.611Z,86.42
2019-05-09T22:12:49.520Z,86.09
2019-05-09T22:15:18.598Z,86.52
2019-05-09T22:17:47.490Z,87.16
2019-05-09T22:20:16.579Z,86.80
2019-05-09T22:22:45.475Z,85.35
2019-05-09T22:25:14.577Z,86.01
2019-05-09T22:27:43.461Z,86.44
2019-05-09T22:30:14.967Z,86.33
2019-05-09T22:32:43.968Z,86.12
2019-05-09T22:35:14.330Z,86.84
2019-05-09T22:37:43.226Z,86.00
2019-05-09T22:40:12.422Z,85.39
2019-05-09T22:42:41.419Z,84.93
2019-05-09T22:45:13.139Z,85.36
2019-05-09T22:47:42.068Z,84.80
2019-05-09T22:50:11.674Z,85.57
2019-05-09T22:52:40.566Z,85.98
2019-05-09T22:55:09.723Z,85.20
2019-05-09T22:57:38.656Z,84.92
2019-05-09T23:00:08.449Z,85.50
2019-05-09T23:02:37.769Z,85.31
2019-05-09T23:05:06.871Z,85.77
2019-05-09T23:07:35.659Z,85.81
2019-05-09T23:10:06.471Z,85.65
2019-05-09T23:12:35.385Z,85.55
2019-05-09T23:15:04.887Z,86.28
2019-05-09T23:17:33.885Z,85.57
2019-05-09T23:20:04.517Z,85.74
2019-05-09T23:22:33.512Z,86.19
2019-05-09T23:25:02.404Z,86.77
2019-05-09T23:27:31.293Z,87.44
2019-05-09T23:30:00.184Z,87.31
2019-05-09T23:32:33.885Z,87.02
2019-05-09T23:35:02.778Z,88.20
2019-05-09T23:37:31.670Z,87.49
2019-05-09T23:40:00.561Z,86.07
2019-05-09T23:42:29.450Z,88.28
2019-05-09T23:44:58.340Z,88.72
2019-05-09T23:47:27.249Z,87.58
2019-05-09T23:49:56.126Z,87.73
2019-05-09T23:52:25.017Z,86.83
2019-05-09T23:55:11.990Z,88.08
2019-05-09T23:57:58.738Z,89.15
